createdAt,value
2023-02-27T00:00:17.021Z,81.67
2023-02-27T00:00:49.026Z,85.33
2023-02-27T00:01:21.094Z,87.67
2023-02-27T00:01:52.887Z,89.33
2023-02-27T00:02:25.625Z,90.00
2023-02-27T00:02:58.432Z,85.00
2023-02-27T00:03:31.870Z,69.67
2023-02-27T00:04:03.884Z,68.33
2023-02-27T00:04:35.739Z,72.00
2023-02-27T00:05:07.940Z,73.33
2023-02-27T00:05:42.645Z,78.67
2023-02-27T00:06:14.652Z,80.67
2023-02-27T00:06:46.579Z,83.00
2023-02-27T00:07:18.413Z,93.33
2023-02-27T00:07:51.276Z,100.00
2023-02-27T00:08:24.186Z,89.33
2023-02-27T00:08:56.009Z,78.00
2023-02-27T00:09:27.803Z,74.33
2023-02-27T00:09:59.628Z,72.33
2023-02-27T00:10:31.408Z,64.00
2023-02-27T00:11:03.247Z,60.67
2023-02-27T00:11:35.030Z,65.00
2023-02-27T00:12:08.181Z,66.33
2023-02-27T00:12:40.856Z,64.00
2023-02-27T00:13:13.172Z,58.67
2023-02-27T00:13:45.233Z,53.33
2023-02-27T00:14:17.049Z,51.67
2023-02-27T00:14:49.033Z,52.33
2023-02-27T00:15:21.033Z,52.33
2023-02-27T00:15:53.540Z,49.67
2023-02-27T00:16:25.399Z,46.00
2023-02-27T00:16:57.249Z,47.67
2023-02-27T00:17:29.851Z,48.33
2023-02-27T00:18:01.827Z,44.67
2023-02-27T00:18:33.669Z,44.33
2023-02-27T00:19:05.593Z,48.00
2023-02-27T00:19:37.424Z,49.33
2023-02-27T00:20:11.875Z,49.00
2023-02-27T00:20:43.626Z,49.00
2023-02-27T00:21:15.953Z,50.33
2023-02-27T00:21:48.279Z,52.00
2023-02-27T00:22:20.009Z,52.00
2023-02-27T00:22:52.291Z,52.00
2023-02-27T00:23:24.112Z,52.00
2023-02-27T00:23:56.033Z,52.00
2023-02-27T00:24:27.990Z,52.67
2023-02-27T00:25:00.295Z,53.00
2023-02-27T00:25:34.095Z,52.00
2023-02-27T00:26:08.261Z,51.00
2023-02-27T00:26:40.367Z,51.00
2023-02-27T00:27:12.462Z,50.67
2023-02-27T00:27:44.609Z,50.33
2023-02-27T00:28:16.491Z,51.00
2023-02-27T00:28:48.366Z,51.00
2023-02-27T00:29:20.706Z,51.00
2023-02-27T00:29:52.527Z,51.00
2023-02-27T00:30:26.599Z,51.00
2023-02-27T00:30:58.554Z,51.00
2023-02-27T00:31:31.133Z,50.67
2023-02-27T00:32:03.133Z,50.00
2023-02-27T00:32:36.899Z,49.67
2023-02-27T00:33:09.213Z,49.00
2023-02-27T00:33:41.254Z,47.67
2023-02-27T00:34:13.061Z,46.67
2023-02-27T00:34:44.891Z,46.00
2023-02-27T00:35:16.723Z,46.00
2023-02-27T00:35:59.290Z,46.00
2023-02-27T00:36:31.049Z,46.00
2023-02-27T00:37:03.855Z,45.33
2023-02-27T00:37:36.048Z,43.00
2023-02-27T00:38:07.938Z,41.33
2023-02-27T00:38:39.784Z,40.00
2023-02-27T00:39:11.652Z,39.00
2023-02-27T00:39:43.641Z,40.00
2023-02-27T00:40:15.702Z,39.33
2023-02-27T00:40:47.485Z,38.67
2023-02-27T00:41:19.342Z,38.00
2023-02-27T00:41:51.176Z,39.00
2023-02-27T00:42:23.001Z,39.00
2023-02-27T00:42:55.029Z,38.33
2023-02-27T00:43:27.081Z,37.67
2023-02-27T00:43:58.923Z,37.00
2023-02-27T00:44:30.792Z,38.00
2023-02-27T00:45:04.453Z,38.00
2023-02-27T00:45:36.183Z,37.33
2023-02-27T00:46:08.194Z,37.00
2023-02-27T00:46:40.088Z,37.33
2023-02-27T00:47:12.097Z,38.00
2023-02-27T00:47:43.997Z,38.00
2023-02-27T00:48:16.252Z,36.67
2023-02-27T00:48:48.115Z,35.67
2023-02-27T00:49:20.914Z,34.33
2023-02-27T00:49:53.246Z,33.67
2023-02-27T00:50:25.089Z,33.00
2023-02-27T00:50:56.927Z,33.00
2023-02-27T00:51:28.928Z,33.33
2023-02-27T00:52:00.724Z,34.00
2023-02-27T00:52:34.082Z,34.00
2023-02-27T00:53:05.959Z,34.00
2023-02-27T00:53:37.790Z,34.00
2023-02-27T00:54:09.924Z,34.00
2023-02-27T00:54:41.782Z,34.00
2023-02-27T00:55:13.711Z,34.00
2023-02-27T00:55:46.295Z,34.00
2023-02-27T00:56:18.238Z,35.00
2023-02-27T00:56:50.057Z,35.67
2023-02-27T00:57:23.084Z,37.33
2023-02-27T00:57:55.063Z,38.67
2023-02-27T00:58:26.906Z,39.67
2023-02-27T00:58:58.675Z,40.00
2023-02-27T00:59:30.489Z,40.33
2023-02-27T01:00:02.364Z,42.00
2023-02-27T01:00:34.229Z,43.67
2023-02-27T01:01:06.154Z,44.00
2023-02-27T01:01:38.043Z,44.00
2023-02-27T01:02:09.900Z,44.00
2023-02-27T01:02:41.933Z,45.00
2023-02-27T01:03:13.872Z,45.00
2023-02-27T01:03:45.763Z,45.00
2023-02-27T01:04:17.670Z,46.00
2023-02-27T01:04:49.918Z,46.00
2023-02-27T01:05:21.779Z,45.67
2023-02-27T01:05:54.168Z,45.00
2023-02-27T01:06:26.067Z,44.33
2023-02-27T01:06:57.911Z,44.00
2023-02-27T01:07:29.714Z,43.33
2023-02-27T01:08:01.573Z,43.00
2023-02-27T01:08:33.417Z,43.33
2023-02-27T01:09:05.414Z,44.00
2023-02-27T01:09:37.495Z,44.00
2023-02-27T01:10:12.455Z,44.00
2023-02-27T01:10:44.182Z,44.00
2023-02-27T01:11:15.961Z,44.00
2023-02-27T01:11:47.893Z,44.00
2023-02-27T01:12:20.173Z,44.00
2023-02-27T01:12:52.126Z,44.00
2023-02-27T01:13:24.112Z,43.67
2023-02-27T01:13:56.351Z,42.67
2023-02-27T01:14:28.315Z,42.00
2023-02-27T01:15:00.245Z,42.67
2023-02-27T01:15:32.050Z,43.67
2023-02-27T01:16:04.231Z,44.33
2023-02-27T01:16:36.361Z,45.33
2023-02-27T01:17:08.186Z,47.00
2023-02-27T01:17:40.141Z,48.00
2023-02-27T01:18:11.969Z,49.00
2023-02-27T01:18:43.799Z,49.00
2023-02-27T01:19:15.766Z,50.00
2023-02-27T01:19:47.581Z,50.00
2023-02-27T01:20:19.728Z,50.00
2023-02-27T01:20:55.484Z,49.33
2023-02-27T01:21:27.554Z,49.00
2023-02-27T01:21:59.370Z,48.00
2023-02-27T01:22:31.176Z,48.00
2023-02-27T01:23:03.015Z,48.33
2023-02-27T01:23:34.807Z,48.00
2023-02-27T01:24:06.574Z,48.00
2023-02-27T01:24:38.752Z,48.00
2023-02-27T01:25:11.237Z,47.33
2023-02-27T01:25:43.237Z,46.33
2023-02-27T01:26:15.064Z,46.00
2023-02-27T01:26:47.753Z,45.00
2023-02-27T01:27:19.566Z,44.67
2023-02-27T01:27:51.365Z,43.67
2023-02-27T01:28:23.180Z,43.00
2023-02-27T01:28:55.202Z,42.33
2023-02-27T01:29:27.237Z,42.00
2023-02-27T01:29:59.164Z,41.00
2023-02-27T01:30:31.026Z,41.00
2023-02-27T01:31:02.872Z,41.00
2023-02-27T01:31:34.853Z,41.33
2023-02-27T01:32:06.782Z,42.00
2023-02-27T01:32:39.063Z,42.67
2023-02-27T01:33:10.885Z,43.00
2023-02-27T01:33:42.789Z,43.67
2023-02-27T01:34:15.469Z,44.33
2023-02-27T01:34:47.344Z,45.33
2023-02-27T01:35:19.199Z,46.67
2023-02-27T01:35:50.996Z,49.00
2023-02-27T01:36:22.748Z,51.33
2023-02-27T01:36:54.575Z,53.00
2023-02-27T01:37:26.781Z,53.00
2023-02-27T01:37:58.575Z,53.00
2023-02-27T01:38:30.435Z,53.00
2023-02-27T01:39:02.498Z,53.00
2023-02-27T01:39:34.491Z,52.00
2023-02-27T01:40:07.400Z,52.00
2023-02-27T01:40:41.163Z,52.00
2023-02-27T01:41:13.092Z,52.00
2023-02-27T01:41:44.890Z,52.00
2023-02-27T01:42:23.703Z,52.00
2023-02-27T01:42:55.565Z,52.67
2023-02-27T01:43:27.852Z,53.00
2023-02-27T01:43:59.626Z,53.00
2023-02-27T01:44:52.177Z,54.00
2023-02-27T01:45:36.316Z,61.00
2023-02-27T01:46:08.353Z,61.67
2023-02-27T01:46:41.372Z,60.67
2023-02-27T01:47:13.380Z,60.00
2023-02-27T01:47:50.144Z,58.67
2023-02-27T01:48:33.578Z,57.00
2023-02-27T01:49:12.209Z,56.00
2023-02-27T01:49:44.408Z,55.33
2023-02-27T01:50:17.945Z,55.00
2023-02-27T01:51:04.887Z,55.00
2023-02-27T01:52:03.300Z,55.00
2023-02-27T01:52:38.687Z,55.00
2023-02-27T01:53:11.509Z,54.00
2023-02-27T01:53:47.137Z,52.67
2023-02-27T01:54:24.730Z,51.33
2023-02-27T01:54:57.865Z,49.33
2023-02-27T01:55:33.876Z,47.67
2023-02-27T01:56:19.825Z,47.00
2023-02-27T01:56:52.593Z,46.33
2023-02-27T01:57:24.419Z,46.00
2023-02-27T01:57:57.272Z,45.00
2023-02-27T01:58:29.378Z,44.00
2023-02-27T01:59:06.359Z,44.00
2023-02-27T01:59:42.114Z,44.00
2023-02-27T02:00:14.764Z,45.00
2023-02-27T02:00:47.394Z,46.00
2023-02-27T02:01:22.230Z,46.00
2023-02-27T02:01:54.176Z,46.00
2023-02-27T02:02:33.956Z,46.00
2023-02-27T02:03:18.801Z,46.00
2023-02-27T02:04:14.969Z,47.00
2023-02-27T02:04:48.388Z,47.00
2023-02-27T02:05:21.326Z,47.00
2023-02-27T02:05:57.077Z,47.00
2023-02-27T02:06:32.552Z,47.00
2023-02-27T02:07:08.886Z,47.00
2023-02-27T02:07:42.132Z,47.00
2023-02-27T02:08:18.856Z,47.00
2023-02-27T02:08:55.749Z,48.00
2023-02-27T02:09:30.240Z,49.00
2023-02-27T02:10:03.304Z,49.00
2023-02-27T02:10:35.822Z,49.00
2023-02-27T02:11:09.188Z,49.00
2023-02-27T02:11:42.594Z,49.00
2023-02-27T02:12:16.195Z,49.00
2023-02-27T02:12:48.143Z,48.00
2023-02-27T02:13:21.957Z,48.00
2023-02-27T02:13:57.332Z,48.33
2023-02-27T02:14:29.134Z,49.00
2023-02-27T02:15:01.074Z,48.00
2023-02-27T02:15:39.683Z,48.00
2023-02-27T02:16:33.130Z,48.00
2023-02-27T02:17:26.861Z,47.00
2023-02-27T02:18:27.916Z,46.00
2023-02-27T02:19:36.527Z,46.00
2023-02-27T02:20:23.162Z,46.00
2023-02-27T02:21:24.182Z,46.00
2023-02-27T02:22:25.036Z,46.00
2023-02-27T02:23:33.525Z,47.67
2023-02-27T02:24:26.739Z,49.00
2023-02-27T02:25:32.109Z,49.00
2023-02-27T02:26:33.555Z,48.33
2023-02-27T02:27:27.116Z,47.67
2023-02-27T02:28:42.043Z,48.00
2023-02-27T02:29:34.872Z,48.00
2023-02-27T02:30:12.542Z,49.00
2023-02-27T02:31:07.198Z,49.67
2023-02-27T02:32:00.731Z,50.00
2023-02-27T02:32:44.676Z,50.00
2023-02-27T02:33:56.620Z,49.00
2023-02-27T02:34:43.275Z,49.00
2023-02-27T02:35:39.157Z,49.00
2023-02-27T02:36:11.020Z,48.67
2023-02-27T02:37:04.877Z,49.00
2023-02-27T02:38:11.621Z,48.67
2023-02-27T02:38:52.784Z,47.33
2023-02-27T02:39:33.406Z,45.67
2023-02-27T02:40:10.943Z,45.00
2023-02-27T02:41:09.013Z,44.33
2023-02-27T02:42:15.144Z,42.33
2023-02-27T02:43:08.108Z,41.00
2023-02-27T02:44:04.654Z,41.00
2023-02-27T02:44:54.856Z,40.33
2023-02-27T02:45:54.800Z,41.00
2023-02-27T02:47:02.395Z,41.00
2023-02-27T02:47:42.709Z,40.67
2023-02-27T02:48:39.782Z,40.00
2023-02-27T02:49:16.933Z,40.00
2023-02-27T02:49:57.585Z,40.00
2023-02-27T02:50:39.807Z,39.67
2023-02-27T02:51:39.947Z,39.00
2023-02-27T02:52:22.707Z,39.00
2023-02-27T02:53:10.651Z,39.00
2023-02-27T02:53:56.026Z,40.00
2023-02-27T02:54:34.769Z,40.00
2023-02-27T02:55:27.210Z,40.00
2023-02-27T02:56:13.901Z,41.00
2023-02-27T02:57:08.778Z,41.00
2023-02-27T03:13:22.803Z,45.67
2023-02-27T03:14:06.206Z,45.00
2023-02-27T03:14:51.641Z,44.00
2023-02-27T03:16:27.824Z,43.00
2023-02-27T03:19:17.720Z,41.00
2023-02-27T03:19:58.965Z,41.00
2023-02-27T03:20:45.934Z,40.00
2023-02-27T03:21:26.390Z,39.67
2023-02-27T03:22:09.538Z,39.00
2023-02-27T03:22:47.481Z,39.00
2023-02-27T03:23:29.697Z,39.00
2023-02-27T03:24:06.110Z,38.00
2023-02-27T03:24:51.700Z,38.00
2023-02-27T03:25:29.236Z,38.00
2023-02-27T03:26:02.993Z,38.00
2023-02-27T03:26:40.115Z,38.00
2023-02-27T03:27:13.219Z,38.00
2023-02-27T03:27:57.615Z,38.00
2023-02-27T03:28:35.565Z,38.00
2023-02-27T03:29:12.127Z,38.00
2023-02-27T03:30:43.569Z,38.00
2023-02-27T03:31:26.583Z,38.00
2023-02-27T03:32:10.193Z,37.00
2023-02-27T03:32:46.182Z,37.00
2023-02-27T03:33:27.406Z,37.00
2023-02-27T03:34:09.248Z,37.00
2023-02-27T03:34:43.742Z,37.00
2023-02-27T03:35:16.530Z,37.00
2023-02-27T03:36:04.940Z,38.00
2023-02-27T03:36:50.975Z,38.00
2023-02-27T03:37:59.816Z,38.00
2023-02-27T03:38:41.182Z,38.00
2023-02-27T03:39:36.150Z,38.00
2023-02-27T03:40:47.198Z,38.00
2023-02-27T03:41:28.188Z,38.00
2023-02-27T03:42:15.234Z,38.00
2023-02-27T03:43:01.145Z,38.00
2023-02-27T03:43:57.417Z,39.00
2023-02-27T03:44:45.250Z,40.00
2023-02-27T03:45:40.442Z,40.00
2023-02-27T03:46:17.608Z,39.00
2023-02-27T03:46:49.440Z,40.00
2023-02-27T03:47:21.789Z,40.00
2023-02-27T03:47:53.747Z,40.00
2023-02-27T03:48:26.185Z,40.00
2023-02-27T03:48:58.002Z,40.00
2023-02-27T03:49:29.834Z,40.00
2023-02-27T03:50:02.181Z,40.00
2023-02-27T03:50:35.605Z,40.00
2023-02-27T03:51:07.471Z,40.00
2023-02-27T03:51:39.629Z,40.00
2023-02-27T03:52:12.437Z,40.00
2023-02-27T03:52:45.839Z,39.33
2023-02-27T03:53:28.128Z,39.00
2023-02-27T03:54:14.519Z,39.00
2023-02-27T03:54:54.533Z,39.00
2023-02-27T03:55:34.190Z,62.33
2023-02-27T03:56:10.153Z,78.67
2023-02-27T03:57:09.517Z,60.33
2023-02-27T03:57:42.721Z,56.00
2023-02-27T03:58:14.819Z,52.33
2023-02-27T03:58:46.740Z,49.33
2023-02-27T03:59:18.981Z,47.33
2023-02-27T03:59:53.360Z,45.33
2023-02-27T04:00:26.715Z,43.67
2023-02-27T04:00:58.777Z,42.00
2023-02-27T04:01:30.729Z,40.67
2023-02-27T04:02:04.079Z,40.00
2023-02-27T04:02:36.822Z,39.67
2023-02-27T04:03:09.460Z,39.00
2023-02-27T04:03:51.280Z,38.00
2023-02-27T04:04:24.276Z,37.00
2023-02-27T04:04:56.164Z,37.00
2023-02-27T04:05:29.011Z,36.67
2023-02-27T04:06:20.738Z,36.00
2023-02-27T04:07:20.259Z,35.67
2023-02-27T04:08:13.576Z,35.00
2023-02-27T04:09:07.902Z,37.00
2023-02-27T04:09:39.650Z,38.00
2023-02-27T04:10:29.363Z,38.00
2023-02-27T04:11:28.522Z,38.00
2023-02-27T04:12:03.212Z,37.67
2023-02-27T04:12:54.089Z,37.00
2023-02-27T04:13:50.388Z,36.00
2023-02-27T04:14:48.368Z,35.00
2023-02-27T04:15:40.360Z,35.00
2023-02-27T04:16:24.124Z,34.00
2023-02-27T04:17:21.674Z,33.67
2023-02-27T04:18:19.578Z,33.00
2023-02-27T04:19:00.377Z,34.00
2023-02-27T04:20:19.045Z,34.00
2023-02-27T04:21:31.783Z,34.00
2023-02-27T04:22:26.262Z,35.00
2023-02-27T04:23:12.484Z,36.67
2023-02-27T04:23:47.196Z,36.00
2023-02-27T04:24:37.235Z,36.00
2023-02-27T04:25:30.418Z,36.00
2023-02-27T04:26:08.071Z,35.67
2023-02-27T04:26:49.418Z,35.00
2023-02-27T04:27:51.269Z,39.00
2023-02-27T04:28:46.015Z,41.00
2023-02-27T04:29:28.091Z,40.00
2023-02-27T04:30:20.820Z,40.00
2023-02-27T04:31:20.209Z,40.00
2023-02-27T04:32:00.670Z,40.00
2023-02-27T04:32:57.557Z,40.00
2023-02-27T04:33:54.904Z,40.00
2023-02-27T04:34:42.345Z,40.00
2023-02-27T04:35:28.447Z,39.67
2023-02-27T04:36:10.800Z,39.33
2023-02-27T04:36:57.529Z,40.00
2023-02-27T04:37:37.700Z,39.00
2023-02-27T04:38:35.820Z,40.00
2023-02-27T04:39:15.363Z,45.67
2023-02-27T04:40:10.485Z,48.33
2023-02-27T04:41:08.416Z,120.00
2023-02-27T04:41:59.802Z,137.00
2023-02-27T04:42:35.677Z,89.33
2023-02-27T04:43:13.604Z,77.67
2023-02-27T04:43:48.290Z,72.67
2023-02-27T04:44:23.389Z,62.00
2023-02-27T04:45:00.779Z,58.00
2023-02-27T04:45:35.726Z,58.00
2023-02-27T04:46:12.685Z,98.33
2023-02-27T04:46:47.915Z,171.00
2023-02-27T04:47:24.365Z,147.67
2023-02-27T04:48:13.591Z,125.00
2023-02-27T04:48:58.419Z,98.67
2023-02-27T04:49:46.802Z,96.00
2023-02-27T04:50:45.674Z,91.67
2023-02-27T04:51:25.852Z,84.67
2023-02-27T04:52:10.617Z,74.67
2023-02-27T04:52:51.597Z,58.33
2023-02-27T04:53:31.461Z,57.00
2023-02-27T04:54:18.050Z,59.00
2023-02-27T04:54:58.596Z,62.00
2023-02-27T04:55:39.489Z,60.00
2023-02-27T04:56:26.204Z,55.00
2023-02-27T04:57:03.703Z,49.67
2023-02-27T04:57:45.330Z,47.67
2023-02-27T04:58:41.205Z,45.00
2023-02-27T04:59:26.116Z,40.33
2023-02-27T05:00:02.556Z,42.00
2023-02-27T05:00:40.345Z,42.00
2023-02-27T05:01:36.358Z,42.00
2023-02-27T05:02:18.307Z,41.67
2023-02-27T05:03:00.701Z,42.00
2023-02-27T05:03:43.099Z,40.33
2023-02-27T05:04:19.186Z,38.00
2023-02-27T05:04:57.738Z,37.33
2023-02-27T05:05:34.456Z,38.00
2023-02-27T05:06:10.647Z,37.00
2023-02-27T05:06:46.586Z,37.67
2023-02-27T05:07:26.835Z,37.00
2023-02-27T05:08:12.676Z,37.00
2023-02-27T05:08:59.142Z,37.00
2023-02-27T05:09:30.917Z,37.00
2023-02-27T05:10:34.081Z,37.67
2023-02-27T05:11:15.727Z,39.33
2023-02-27T05:12:20.947Z,47.67
2023-02-27T05:13:03.025Z,65.33
2023-02-27T05:13:56.925Z,70.33
2023-02-27T05:15:04.695Z,95.33
2023-02-27T05:15:47.536Z,71.00
2023-02-27T05:16:27.323Z,72.33
2023-02-27T05:17:08.838Z,83.00
2023-02-27T05:17:49.341Z,107.33
2023-02-27T05:18:23.208Z,112.00
2023-02-27T05:18:56.823Z,130.33
2023-02-27T05:19:32.378Z,136.33
2023-02-27T05:20:09.169Z,127.00
2023-02-27T05:20:43.666Z,101.33
2023-02-27T05:21:36.470Z,95.00
2023-02-27T05:22:28.675Z,94.00
2023-02-27T05:23:36.248Z,92.00
2023-02-27T05:24:26.945Z,90.67
2023-02-27T05:25:17.078Z,82.67
2023-02-27T05:25:54.851Z,96.00
2023-02-27T05:26:32.502Z,112.00
2023-02-27T05:27:15.739Z,100.00
2023-02-27T05:27:54.342Z,90.67
2023-02-27T05:28:47.502Z,66.00
2023-02-27T05:29:33.541Z,61.67
2023-02-27T05:30:29.676Z,69.33
2023-02-27T05:31:23.800Z,196.33
2023-02-27T05:32:07.390Z,187.67
2023-02-27T05:32:57.711Z,180.67
2023-02-27T05:33:50.640Z,181.33
2023-02-27T05:34:54.106Z,211.67
2023-02-27T05:35:34.248Z,234.00
2023-02-27T05:36:14.267Z,252.33
2023-02-27T05:37:01.749Z,258.33
2023-02-27T05:37:53.478Z,248.33
2023-02-27T05:38:36.990Z,276.67
2023-02-27T05:39:11.937Z,314.00
2023-02-27T05:39:48.051Z,323.67
2023-02-27T05:40:29.028Z,329.67
2023-02-27T05:42:34.894Z,293.00
2023-02-27T05:43:19.205Z,286.00
2023-02-27T05:43:58.296Z,276.67
2023-02-27T05:44:36.675Z,288.33
2023-02-27T05:45:15.209Z,306.67
2023-02-27T05:45:50.939Z,304.67
2023-02-27T05:46:30.535Z,332.00
2023-02-27T05:47:08.591Z,380.33
2023-02-27T05:47:51.264Z,304.33
2023-02-27T05:48:38.611Z,266.00
2023-02-27T05:49:18.862Z,214.33
2023-02-27T05:50:02.250Z,217.00
2023-02-27T05:50:37.875Z,164.67
2023-02-27T05:51:14.086Z,230.00
2023-02-27T05:51:51.798Z,250.67
2023-02-27T05:52:26.765Z,253.67
2023-02-27T05:53:04.537Z,403.67
2023-02-27T05:53:44.240Z,426.00
2023-02-27T05:54:50.661Z,384.00
2023-02-27T05:55:29.433Z,307.67
2023-02-27T05:56:05.232Z,298.67
2023-02-27T05:56:40.044Z,302.67
2023-02-27T05:57:24.021Z,304.67
2023-02-27T05:59:23.707Z,280.33
2023-02-27T05:59:58.815Z,270.33
2023-02-27T06:00:39.102Z,271.67
2023-02-27T06:01:12.204Z,229.67
2023-02-27T06:01:46.261Z,204.00
2023-02-27T06:02:18.521Z,209.33
2023-02-27T06:02:50.621Z,219.00
2023-02-27T06:03:22.893Z,323.33
2023-02-27T06:03:54.842Z,260.00
2023-02-27T06:04:26.665Z,244.00
2023-02-27T06:04:58.485Z,274.33
2023-02-27T06:05:30.831Z,233.67
2023-02-27T06:06:08.691Z,178.33
2023-02-27T06:06:42.190Z,148.00
2023-02-27T06:07:15.105Z,138.67
2023-02-27T06:07:47.211Z,122.33
2023-02-27T06:08:20.356Z,111.67
2023-02-27T06:08:52.220Z,111.33
2023-02-27T06:09:24.594Z,125.00
2023-02-27T06:09:56.384Z,138.67
2023-02-27T06:10:28.622Z,117.00
2023-02-27T06:11:00.367Z,101.00
2023-02-27T06:11:32.143Z,103.00
2023-02-27T06:12:04.046Z,95.00
2023-02-27T06:12:35.813Z,107.00
2023-02-27T06:13:07.596Z,163.00
2023-02-27T06:13:41.841Z,149.00
2023-02-27T06:14:14.018Z,109.67
2023-02-27T06:14:45.794Z,93.67
2023-02-27T06:15:18.881Z,89.33
2023-02-27T06:15:50.971Z,86.67
2023-02-27T06:16:25.039Z,91.00
2023-02-27T06:16:57.017Z,103.00
2023-02-27T06:17:28.932Z,224.33
2023-02-27T06:18:00.858Z,279.33
2023-02-27T06:18:32.660Z,307.67
2023-02-27T06:19:06.002Z,333.33
2023-02-27T06:19:37.855Z,305.00
2023-02-27T06:20:10.500Z,265.33
2023-02-27T06:20:44.049Z,224.67
2023-02-27T06:21:15.921Z,173.00
2023-02-27T06:21:47.701Z,169.33
2023-02-27T06:22:19.465Z,181.00
2023-02-27T06:22:51.394Z,184.33
2023-02-27T06:23:23.333Z,189.33
2023-02-27T06:23:56.392Z,224.67
2023-02-27T06:24:28.213Z,284.33
2023-02-27T06:25:00.011Z,318.33
2023-02-27T06:25:31.833Z,325.33
2023-02-27T06:26:03.684Z,315.33
2023-02-27T06:26:35.668Z,298.33
2023-02-27T06:27:07.557Z,280.00
2023-02-27T06:27:39.658Z,258.00
2023-02-27T06:28:11.731Z,247.33
2023-02-27T06:28:43.857Z,227.33
2023-02-27T06:29:15.746Z,241.00
2023-02-27T06:29:47.515Z,257.33
2023-02-27T06:30:19.443Z,248.67
2023-02-27T06:30:55.757Z,216.00
2023-02-27T06:31:27.590Z,193.00
2023-02-27T06:31:59.830Z,174.33
2023-02-27T06:32:31.654Z,191.33
2023-02-27T06:33:04.564Z,213.33
2023-02-27T06:33:36.426Z,272.67
2023-02-27T06:34:08.320Z,321.67
2023-02-27T06:34:40.157Z,295.33
2023-02-27T06:35:12.223Z,264.67
2023-02-27T06:35:44.462Z,254.33
2023-02-27T06:36:16.251Z,251.67
2023-02-27T06:36:48.774Z,217.33
2023-02-27T06:37:21.859Z,179.67
2023-02-27T06:37:53.673Z,171.33
2023-02-27T06:38:25.482Z,180.67
2023-02-27T06:38:58.716Z,188.33
2023-02-27T06:39:30.469Z,171.67
2023-02-27T06:40:02.237Z,136.33
2023-02-27T06:40:34.009Z,134.33
2023-02-27T06:41:05.854Z,168.67
2023-02-27T06:41:38.087Z,177.33
2023-02-27T06:42:09.866Z,142.67
2023-02-27T06:42:44.048Z,125.67
2023-02-27T06:43:15.935Z,130.33
2023-02-27T06:43:47.722Z,140.00
2023-02-27T06:44:20.220Z,160.33
2023-02-27T06:44:52.576Z,171.33
2023-02-27T06:45:24.512Z,174.67
2023-02-27T06:45:56.433Z,179.67
2023-02-27T06:46:28.693Z,175.00
2023-02-27T06:47:00.590Z,176.33
2023-02-27T06:47:32.800Z,193.00
2023-02-27T06:48:04.714Z,221.67
2023-02-27T06:48:36.548Z,222.67
2023-02-27T06:49:08.356Z,213.33
2023-02-27T06:49:40.157Z,206.67
2023-02-27T06:50:14.057Z,201.00
2023-02-27T06:50:45.858Z,196.33
2023-02-27T06:51:17.741Z,203.00
2023-02-27T06:51:49.569Z,213.67
2023-02-27T06:52:21.380Z,218.33
2023-02-27T06:52:53.232Z,224.67
2023-02-27T06:53:25.589Z,218.67
2023-02-27T06:53:57.439Z,223.00
2023-02-27T06:54:29.491Z,259.00
2023-02-27T06:55:04.606Z,234.33
2023-02-27T06:55:36.455Z,229.33
2023-02-27T06:56:08.577Z,227.33
2023-02-27T06:56:40.352Z,223.33
2023-02-27T06:57:12.084Z,250.33
2023-02-27T06:57:43.867Z,240.33
2023-02-27T06:58:16.387Z,210.00
2023-02-27T06:58:48.149Z,156.33
2023-02-27T06:59:19.988Z,140.67
2023-02-27T06:59:51.841Z,131.00
2023-02-27T07:00:24.008Z,121.67
2023-02-27T07:00:55.805Z,124.00
2023-02-27T07:01:27.875Z,167.00
2023-02-27T07:02:00.687Z,172.00
2023-02-27T07:02:32.504Z,166.00
2023-02-27T07:03:05.087Z,149.00
2023-02-27T07:03:36.886Z,131.00
2023-02-27T07:04:13.161Z,135.00
2023-02-27T07:04:45.099Z,124.00
2023-02-27T07:05:18.234Z,116.00
2023-02-27T07:05:50.511Z,124.33
2023-02-27T07:06:22.426Z,151.67
2023-02-27T07:07:33.375Z,131.67
2023-02-27T07:08:06.662Z,134.67
2023-02-27T07:08:38.437Z,149.67
2023-02-27T07:09:30.199Z,102.67
2023-02-27T07:10:02.019Z,98.67
2023-02-27T07:10:33.913Z,96.33
2023-02-27T07:11:05.697Z,94.33
2023-02-27T07:11:37.478Z,103.33
2023-02-27T07:12:09.542Z,105.33
2023-02-27T07:12:41.993Z,108.00
2023-02-27T07:13:16.496Z,110.33
2023-02-27T07:13:50.089Z,113.00
2023-02-27T07:14:22.505Z,171.33
2023-02-27T07:14:54.270Z,261.33
2023-02-27T07:15:26.051Z,193.67
2023-02-27T07:15:57.979Z,168.67
2023-02-27T07:16:29.971Z,164.33
2023-02-27T07:17:04.554Z,161.67
2023-02-27T07:17:36.519Z,158.67
2023-02-27T07:18:08.312Z,148.00
2023-02-27T07:18:40.366Z,113.67
2023-02-27T07:19:12.234Z,91.33
2023-02-27T07:19:45.508Z,75.67
2023-02-27T07:20:17.530Z,67.67
2023-02-27T07:20:52.935Z,63.00
2023-02-27T07:21:25.033Z,61.33
2023-02-27T07:21:57.135Z,181.00
2023-02-27T07:22:28.901Z,231.33
2023-02-27T07:23:00.818Z,165.00
2023-02-27T07:23:32.782Z,135.67
2023-02-27T07:24:05.012Z,111.00
2023-02-27T07:24:36.947Z,106.00
2023-02-27T07:25:09.261Z,97.67
2023-02-27T07:25:41.039Z,88.00
2023-02-27T07:26:12.780Z,85.00
2023-02-27T07:26:44.586Z,76.33
2023-02-27T07:27:16.498Z,75.00
2023-02-27T07:27:50.916Z,73.33
2023-02-27T07:28:22.822Z,68.00
2023-02-27T07:28:55.017Z,66.67
2023-02-27T07:29:27.455Z,67.67
2023-02-27T07:29:59.297Z,68.33
2023-02-27T07:30:31.271Z,73.67
2023-02-27T07:31:03.125Z,77.67
2023-02-27T07:31:35.969Z,68.33
2023-02-27T07:32:07.868Z,66.67
2023-02-27T07:32:39.871Z,145.00
2023-02-27T07:33:11.777Z,318.33
2023-02-27T07:33:43.649Z,245.00
2023-02-27T07:34:15.838Z,180.67
2023-02-27T07:34:48.026Z,152.33
2023-02-27T07:35:19.955Z,143.67
2023-02-27T07:35:51.960Z,141.33
2023-02-27T07:36:24.300Z,140.33
2023-02-27T07:36:56.122Z,139.33
2023-02-27T07:37:28.271Z,140.00
2023-02-27T07:38:00.060Z,143.33
2023-02-27T07:38:32.554Z,138.67
2023-02-27T07:39:06.204Z,125.33
2023-02-27T07:39:38.003Z,108.33
2023-02-27T07:40:10.454Z,97.67
2023-02-27T07:40:42.259Z,105.00
2023-02-27T07:41:29.258Z,102.00
2023-02-27T07:42:02.219Z,102.00
2023-02-27T07:42:34.142Z,107.67
2023-02-27T07:43:05.986Z,123.00
2023-02-27T07:43:37.935Z,172.67
2023-02-27T07:44:09.895Z,190.33
2023-02-27T07:44:41.617Z,173.00
2023-02-27T07:45:13.399Z,188.67
2023-02-27T07:45:45.952Z,206.67
2023-02-27T07:46:17.809Z,223.33
2023-02-27T07:46:49.680Z,254.33
2023-02-27T07:47:21.590Z,274.67
2023-02-27T07:47:53.389Z,283.00
2023-02-27T07:48:25.243Z,280.67
2023-02-27T07:48:57.228Z,282.67
2023-02-27T07:49:29.202Z,286.00
2023-02-27T07:50:00.994Z,295.33
2023-02-27T07:50:32.790Z,355.67
2023-02-27T07:51:04.599Z,363.00
2023-02-27T07:51:36.612Z,340.00
2023-02-27T07:52:08.581Z,318.67
2023-02-27T07:52:44.432Z,302.67
2023-02-27T07:53:16.286Z,294.00
2023-02-27T07:53:48.106Z,381.33
2023-02-27T07:54:20.164Z,427.33
2023-02-27T07:54:52.485Z,448.00
2023-02-27T07:55:24.311Z,445.33
2023-02-27T07:55:56.152Z,407.00
2023-02-27T07:56:28.269Z,359.67
2023-02-27T07:57:00.202Z,336.67
2023-02-27T07:57:32.287Z,346.33
2023-02-27T07:58:04.224Z,350.00
2023-02-27T07:58:36.039Z,354.67
2023-02-27T07:59:07.995Z,352.67
2023-02-27T07:59:39.901Z,355.67
2023-02-27T08:00:12.536Z,329.33
2023-02-27T08:00:44.301Z,322.67
2023-02-27T08:01:16.095Z,315.67
2023-02-27T08:01:47.854Z,315.00
2023-02-27T08:02:19.800Z,316.33
2023-02-27T08:02:51.631Z,318.67
2023-02-27T08:03:23.405Z,320.00
2023-02-27T08:03:56.581Z,318.67
2023-02-27T08:04:28.419Z,318.33
2023-02-27T08:05:00.281Z,318.00
2023-02-27T08:05:32.379Z,314.33
2023-02-27T08:06:04.223Z,289.33
2023-02-27T08:06:36.005Z,241.33
2023-02-27T08:07:08.286Z,244.67
2023-02-27T08:07:40.161Z,257.00
2023-02-27T08:08:11.965Z,255.33
2023-02-27T08:08:43.777Z,249.33
2023-02-27T08:09:16.388Z,250.00
2023-02-27T08:09:48.272Z,244.33
2023-02-27T08:10:20.319Z,181.67
2023-02-27T08:10:52.136Z,142.00
2023-02-27T08:11:23.978Z,138.33
2023-02-27T08:11:55.751Z,143.00
2023-02-27T08:12:27.658Z,143.00
2023-02-27T08:12:59.505Z,153.33
2023-02-27T08:13:59.187Z,172.67
2023-02-27T08:14:23.317Z,155.67
2023-02-27T08:14:55.204Z,146.67
2023-02-27T08:15:27.027Z,153.67